createdAt,value
2022-09-07T00:04:15.874Z,4.68
2022-09-07T00:09:36.624Z,4.55
2022-09-07T00:14:57.850Z,4.43
2022-09-07T00:20:18.588Z,4.88
2022-09-07T00:25:40.889Z,4.93
2022-09-07T00:31:02.002Z,5.30
2022-09-07T00:36:23.695Z,5.10
2022-09-07T00:41:44.557Z,4.97
2022-09-07T00:47:34.735Z,5.90
2022-09-07T00:53:21.808Z,4.78
2022-09-07T00:58:43.996Z,5.38
2022-09-07T01:04:04.975Z,5.30
2022-09-07T01:09:27.625Z,5.43
2022-09-07T01:14:51.989Z,5.28
2022-09-07T01:20:49.575Z,5.93
2022-09-07T01:26:41.540Z,5.93
2022-09-07T01:32:20.252Z,6.22
2022-09-07T01:38:02.922Z,5.65
2022-09-07T01:43:50.215Z,6.53
2022-09-07T01:49:15.459Z,6.22
2022-09-07T01:54:46.704Z,6.18
2022-09-07T02:00:11.032Z,5.80
2022-09-07T02:05:46.090Z,5.82
2022-09-07T02:11:28.843Z,6.05
2022-09-07T02:17:03.480Z,5.95
2022-09-07T02:22:30.104Z,6.40
2022-09-07T02:27:57.358Z,5.88
2022-09-07T02:33:18.494Z,5.80
2022-09-07T02:38:39.826Z,6.10
2022-09-07T02:44:02.373Z,5.72
2022-09-07T02:49:47.190Z,6.03
2022-09-07T02:55:24.865Z,5.82
2022-09-07T03:00:53.522Z,6.45
2022-09-07T03:06:29.495Z,5.70
2022-09-07T03:11:50.845Z,5.63
2022-09-07T03:17:13.321Z,6.65
2022-09-07T03:22:34.946Z,5.70
2022-09-07T03:27:55.583Z,6.10
2022-09-07T03:33:17.176Z,6.03
2022-09-07T03:38:37.910Z,6.07
2022-09-07T03:44:05.683Z,6.25
2022-09-07T03:49:26.405Z,6.78
2022-09-07T03:54:47.359Z,6.18
2022-09-07T04:00:08.934Z,7.47
2022-09-07T04:05:35.784Z,7.13
2022-09-07T04:10:58.167Z,5.88
2022-09-07T04:16:20.175Z,6.22
2022-09-07T04:21:41.061Z,6.72
2022-09-07T04:27:02.418Z,5.97
2022-09-07T04:32:23.452Z,6.30
2022-09-07T04:37:45.523Z,6.60
2022-09-07T04:43:08.212Z,6.22
2022-09-07T04:48:28.905Z,6.05
2022-09-07T04:53:51.158Z,6.40
2022-09-07T04:59:12.186Z,6.95
2022-09-07T05:04:36.301Z,6.07
2022-09-07T05:09:57.379Z,6.70
2022-09-07T05:15:18.223Z,7.93
2022-09-07T05:20:38.685Z,7.03
2022-09-07T05:25:59.224Z,6.90
2022-09-07T05:31:22.015Z,7.35
2022-09-07T05:36:42.526Z,7.82
2022-09-07T05:42:03.708Z,7.78
2022-09-07T05:47:24.586Z,7.40
2022-09-07T05:52:46.148Z,8.23
2022-09-07T05:58:06.605Z,7.57
2022-09-07T06:03:28.057Z,7.85
2022-09-07T06:08:53.268Z,7.18
2022-09-07T06:14:13.941Z,7.25
2022-09-07T06:19:34.652Z,7.38
2022-09-07T06:24:55.193Z,6.53
2022-09-07T06:30:16.016Z,7.10
2022-09-07T06:35:36.736Z,7.60
2022-09-07T06:52:22.556Z,5.25
2022-09-07T06:57:43.363Z,6.50
2022-09-07T07:03:04.333Z,6.28
2022-09-07T07:08:25.793Z,4.72
2022-09-07T07:13:46.505Z,4.60
2022-09-07T07:19:07.058Z,4.50
2022-09-07T07:24:27.741Z,5.05
2022-09-07T07:29:48.420Z,5.45
2022-09-07T07:35:10.125Z,4.70
2022-09-07T07:40:31.877Z,4.63
2022-09-07T07:45:55.712Z,4.90
2022-09-07T07:51:16.592Z,5.53
2022-09-07T07:56:37.106Z,5.22
2022-09-07T08:01:57.835Z,4.80
2022-09-07T08:07:19.429Z,5.68
2022-09-07T08:12:40.151Z,5.40
2022-09-07T08:18:01.162Z,5.35
2022-09-07T08:23:21.876Z,4.75
2022-09-07T08:28:45.463Z,5.40
2022-09-07T08:34:07.719Z,4.60
2022-09-07T08:39:28.398Z,4.30
2022-09-07T08:45:06.814Z,4.63
2022-09-07T08:50:33.817Z,4.57
2022-09-07T08:55:58.439Z,4.97
2022-09-07T09:01:31.043Z,5.70
2022-09-07T09:07:22.845Z,5.55
2022-09-07T09:12:57.830Z,5.00
2022-09-07T09:18:36.673Z,4.60
2022-09-07T09:24:02.415Z,4.63
2022-09-07T09:29:24.030Z,4.07
2022-09-07T09:35:01.507Z,4.43
2022-09-07T09:40:31.290Z,4.60
2022-09-07T09:46:12.437Z,4.25
2022-09-07T10:09:20.352Z,3.70
2022-09-07T10:14:46.773Z,4.30
2022-09-07T10:20:15.772Z,4.80
2022-09-07T10:31:17.708Z,4.28
2022-09-07T10:36:47.376Z,3.40
2022-09-07T10:42:29.009Z,3.80
2022-09-07T10:48:19.398Z,3.45
2022-09-07T11:00:08.763Z,3.95
2022-09-07T11:05:38.724Z,4.03
2022-09-07T11:11:11.746Z,4.30
2022-09-07T11:16:54.707Z,4.10
2022-09-07T11:22:32.738Z,4.80
2022-09-07T11:27:58.679Z,4.80
2022-09-07T11:33:23.251Z,4.57
2022-09-07T11:38:44.396Z,4.50
2022-09-07T11:44:18.867Z,4.40
2022-09-07T11:49:39.458Z,4.47
2022-09-07T11:55:06.045Z,4.72
2022-09-07T12:00:55.546Z,4.45
2022-09-07T12:06:22.598Z,4.40
2022-09-07T12:12:09.514Z,4.35
2022-09-07T12:17:51.271Z,4.65
2022-09-07T12:23:15.325Z,3.95
2022-09-07T12:28:36.447Z,3.92
2022-09-07T12:34:31.494Z,3.65
2022-09-07T12:40:27.235Z,3.60
2022-09-07T12:45:51.886Z,4.20
2022-09-07T12:57:32.673Z,4.78
2022-09-07T13:09:36.803Z,3.72
2022-09-07T13:15:00.654Z,3.70
2022-09-07T13:20:30.138Z,3.42
2022-09-07T13:25:54.299Z,3.80
2022-09-07T13:31:43.798Z,3.20
2022-09-07T13:37:06.583Z,3.25
2022-09-07T13:42:33.602Z,3.60
2022-09-07T13:48:20.570Z,3.38
2022-09-07T13:54:01.672Z,3.20
2022-09-07T13:59:23.834Z,3.42
2022-09-07T14:04:51.327Z,2.95
2022-09-07T14:10:19.609Z,3.03
2022-09-07T14:15:50.943Z,3.47
2022-09-07T14:21:19.019Z,3.35
2022-09-07T14:26:46.865Z,3.47
2022-09-07T14:32:14.978Z,2.90
2022-09-07T14:37:36.848Z,3.23
2022-09-07T14:42:58.561Z,3.25
2022-09-07T14:48:29.230Z,4.18
2022-09-07T14:54:02.447Z,3.25
2022-09-07T14:59:33.621Z,2.83
2022-09-07T15:05:17.906Z,2.42
2022-09-07T15:10:41.300Z,2.53
2022-09-07T15:16:05.575Z,2.83
2022-09-07T15:21:29.858Z,2.72
2022-09-07T15:27:09.280Z,2.53
2022-09-07T15:32:29.819Z,2.47
2022-09-07T15:38:58.917Z,2.60
2022-09-07T15:43:31.393Z,2.45
2022-09-07T15:48:55.384Z,2.10
2022-09-07T15:54:16.772Z,2.03
2022-09-07T15:59:37.912Z,2.58
2022-09-07T16:04:58.969Z,2.28
2022-09-07T16:10:20.530Z,2.40
2022-09-07T16:15:46.189Z,2.40
2022-09-07T16:21:12.643Z,3.72
2022-09-07T16:26:33.683Z,2.85
2022-09-07T16:37:36.015Z,3.30
2022-09-07T16:42:57.278Z,2.80
2022-09-07T16:48:18.010Z,2.95
2022-09-07T16:53:39.719Z,2.70
2022-09-07T16:59:03.180Z,2.60
2022-09-07T17:04:24.512Z,2.78
2022-09-07T17:09:46.298Z,3.10
2022-09-07T17:15:08.406Z,2.78
2022-09-07T17:20:29.322Z,3.08
2022-09-07T17:25:49.995Z,2.65
2022-09-07T17:42:24.600Z,2.85
2022-09-07T17:47:45.617Z,3.13
2022-09-07T17:53:06.309Z,3.28
2022-09-07T17:58:27.232Z,14.32
2022-09-07T18:03:48.127Z,5.78
2022-09-07T18:09:08.862Z,7.10
2022-09-07T18:14:30.211Z,4.70
2022-09-07T18:19:51.174Z,3.53
2022-09-07T18:25:11.885Z,3.38
2022-09-07T18:30:39.851Z,3.92
2022-09-07T18:36:01.459Z,3.63
2022-09-07T18:41:22.156Z,2.90
2022-09-07T18:46:42.844Z,3.40
2022-09-07T18:57:45.101Z,3.30
2022-09-07T19:03:05.900Z,3.33
2022-09-07T19:08:29.922Z,3.63
2022-09-07T19:14:04.133Z,3.75
2022-09-07T19:19:26.585Z,4.55
2022-09-07T19:24:47.202Z,2.95
2022-09-07T19:30:08.547Z,3.03
2022-09-07T19:35:30.142Z,3.05
2022-09-07T19:40:58.584Z,2.53
2022-09-07T19:46:24.668Z,3.50
2022-09-07T19:51:46.080Z,2.22
2022-09-07T19:57:06.864Z,2.53
2022-09-07T20:02:27.957Z,2.30
2022-09-07T20:07:49.817Z,2.35
2022-09-07T20:13:10.605Z,2.05
2022-09-07T20:18:31.357Z,2.10
2022-09-07T20:23:52.532Z,2.80
2022-09-07T20:29:27.406Z,2.10
2022-09-07T20:34:50.597Z,2.40
2022-09-07T20:40:11.421Z,2.45
2022-09-07T20:45:35.247Z,2.45
2022-09-07T20:51:00.785Z,2.30
2022-09-07T20:56:24.560Z,2.15
2022-09-07T21:01:46.744Z,2.35
2022-09-07T21:07:07.284Z,2.08
2022-09-07T21:12:27.881Z,2.50
2022-09-07T21:17:48.495Z,1.90
2022-09-07T21:23:10.143Z,2.00
2022-09-07T21:28:31.264Z,2.25
2022-09-07T21:33:56.966Z,2.28
2022-09-07T21:39:18.765Z,2.20
2022-09-07T21:44:39.130Z,2.85
2022-09-07T21:49:59.733Z,2.63
2022-09-07T21:55:20.402Z,2.42
2022-09-07T22:00:41.026Z,2.40
2022-09-07T22:06:02.987Z,2.65
2022-09-07T22:11:25.729Z,2.05
2022-09-07T22:16:46.429Z,2.90
2022-09-07T22:22:07.262Z,2.15
2022-09-07T22:27:27.947Z,2.50
2022-09-07T22:32:52.270Z,2.72
2022-09-07T22:38:13.107Z,3.33
2022-09-07T22:43:34.517Z,3.80
2022-09-07T22:48:57.343Z,3.85
2022-09-07T22:54:18.294Z,3.05
2022-09-07T22:59:38.874Z,3.20
2022-09-07T23:04:59.504Z,2.83
2022-09-07T23:10:20.009Z,2.65
2022-09-07T23:15:40.661Z,3.25
2022-09-07T23:21:02.253Z,3.40
2022-09-07T23:26:25.124Z,3.30
2022-09-07T23:31:46.619Z,3.10
2022-09-07T23:37:07.356Z,2.95
2022-09-07T23:42:27.855Z,3.30
2022-09-07T23:47:48.446Z,2.90
2022-09-07T23:53:09.429Z,2.97
2022-09-07T23:58:30.374Z,2.88
